MAPA DE AEROPUERTO

INFORMACIÓN METAR y TAF

METAR FOR EGLC
ADDS - METARS form results

(1720 UTC 23 October 2021)
Data provider http://aviationweather.gov/metar/data/
 
METAR text: EGLC 231650Z AUTO 16006KT 9999 OVC043 13/07 Q1024
Conditions at: EGLC (LONDON CITY AIRP, GB) observed 1650 UTC 23 October 2021
Temperature: 13.0°C (55°F)
Dewpoint: 7.0°C (45°F) [RH = 67%]
Pressure (altimeter): 30.24 inches Hg (1024.0 mb)
Winds: from the SSE (160 degrees) at 7 MPH (6 knots; 3.1 m/s)
Visibility: 6 or more miles (10+ km)
Ceiling: 4300 feet AGL
Clouds: overcast cloud deck at 4300 feet AGL
Weather: no significant weather observed at this time

Forecast for: EGLC (LONDON CITY AIRP, GB)
Text: TAF EGLC 230758Z 2309/2318 22005KT 9999 SCT045
Forecast period: 0900 to 1800 UTC 23 October 2021
Forecast type: FROM: standard forecast or significant change
Winds: from the SW (220 degrees) at 6 MPH (5 knots; 2.6 m/s)
Visibility: 6 or more miles (10+ km)
Ceiling: at least 12,000 feet AGL
Clouds: scattered clouds at 4500 feet AGL
Weather: no significant weather forecast for this period